sensor_id;sensor_type;location;lat;lon;timestamp;pressure;altitude;pressure_sealevel;temperature;humidity
9935;BME280;5006;41.828;23.478;2022-07-12T00:01:05;90728.41;;;14.05;nan
9935;BME280;5006;41.828;23.478;2022-07-12T00:02:10;90729.47;;;14.22;nan
9935;BME280;5006;41.828;23.478;2022-07-12T00:03:16;90722.56;;;14.17;nan
9935;BME280;5006;41.828;23.478;2022-07-12T00:04:20;90719.09;;;14.17;nan
9935;BME280;5006;41.828;23.478;2022-07-12T00:05:26;90723.78;;;14.06;nan
9935;BME280;5006;41.828;23.478;2022-07-12T00:06:32;90724.63;;;13.99;nan
9935;BME280;5006;41.828;23.478;2022-07-12T00:07:37;90733.06;;;14.05;nan
9935;BME280;5006;41.828;23.478;2022-07-12T00:08:43;90724.63;;;13.99;nan
9935;BME280;5006;41.828;23.478;2022-07-12T00:09:48;90723.75;;;14.09;nan
9935;BME280;5006;41.828;23.478;2022-07-12T00:10:54;90732.56;;;14.17;nan
9935;BME280;5006;41.828;23.478;2022-07-12T00:11:59;90725.13;;;14.35;nan
9935;BME280;5006;41.828;23.478;2022-07-12T00:13:05;90723.94;;;14.36;nan
9935;BME280;5006;41.828;23.478;2022-07-12T00:14:10;90720.59;;;14.65;nan
9935;BME280;5006;41.828;23.478;2022-07-12T00:15:16;90728.44;;;14.49;nan
9935;BME280;5006;41.828;23.478;2022-07-12T00:16:22;90721.63;;;14.34;nan
9935;BME280;5006;41.828;23.478;2022-07-12T00:17:28;90720.66;;;14.18;nan
9935;BME280;5006;41.828;23.478;2022-07-12T00:18:33;90724.91;;;14.08;nan
9935;BME280;5006;41.828;23.478;2022-07-12T00:19:39;90722.31;;;14.45;nan
9935;BME280;5006;41.828;23.478;2022-07-12T00:20:43;90723.28;;;14.21;nan
9935;BME280;5006;41.828;23.478;2022-07-12T00:21:58;90719.97;;;14.47;nan
9935;BME280;5006;41.828;23.478;2022-07-12T00:23:04;90722.34;;;14.42;nan
9935;BME280;5006;41.828;23.478;2022-07-12T00:24:10;90723.81;;;14.50;nan
9935;BME280;5006;41.828;23.478;2022-07-12T00:25:15;90723.88;;;14.43;nan
9935;BME280;5006;41.828;23.478;2022-07-12T00:26:20;90727.50;;;14.26;nan
9935;BME280;5006;41.828;23.478;2022-07-12T00:27:25;90724.16;;;14.08;nan
9935;BME280;5006;41.828;23.478;2022-07-12T00:28:33;90724.63;;;13.99;nan
9935;BME280;5006;41.828;23.478;2022-07-12T00:29:37;90722.19;;;14.12;nan
9935;BME280;5006;41.828;23.478;2022-07-12T00:30:43;90720.69;;;14.07;nan
9935;BME280;5006;41.828;23.478;2022-07-12T00:31:49;90717.47;;;13.72;nan
9935;BME280;5006;41.828;23.478;2022-07-12T00:32:55;90719.22;;;13.99;nan
9935;BME280;5006;41.828;23.478;2022-07-12T00:34:00;90719.78;;;14.28;nan
9935;BME280;5006;41.828;23.478;2022-07-12T00:35:06;90718.31;;;14.20;nan
9935;BME280;5006;41.828;23.478;2022-07-12T00:36:11;90723.13;;;14.42;nan
9935;BME280;5006;41.828;23.478;2022-07-12T00:37:17;90708.44;;;14.47;nan
9935;BME280;5006;41.828;23.478;2022-07-12T00:38:21;90717.22;;;14.95;nan
9935;BME280;5006;41.828;23.478;2022-07-12T00:39:27;90715.03;;;14.42;nan
9935;BME280;5006;41.828;23.478;2022-07-12T00:40:32;90720.53;;;14.32;nan
9935;BME280;5006;41.828;23.478;2022-07-12T00:41:37;90715.91;;;14.69;nan
9935;BME280;5006;41.828;23.478;2022-07-12T00:42:42;90713.34;;;14.59;nan
9935;BME280;5006;41.828;23.478;2022-07-12T00:43:48;90722.75;;;14.81;nan
9935;BME280;5006;41.828;23.478;2022-07-12T00:44:53;90715.59;;;14.64;nan
9935;BME280;5006;41.828;23.478;2022-07-12T00:45:59;90719.50;;;14.96;nan
9935;BME280;5006;41.828;23.478;2022-07-12T00:47:06;90708.03;;;14.85;nan
9935;BME280;5006;41.828;23.478;2022-07-12T00:48:11;90715.66;;;14.94;nan
9935;BME280;5006;41.828;23.478;2022-07-12T00:49:18;90706.25;;;15.09;nan
9935;BME280;5006;41.828;23.478;2022-07-12T00:50:24;90720.53;;;15.06;nan
9935;BME280;5006;41.828;23.478;2022-07-12T00:51:28;90717.28;;;15.21;nan
9935;BME280;5006;41.828;23.478;2022-07-12T00:52:35;90717.13;;;15.02;nan
9935;BME280;5006;41.828;23.478;2022-07-12T00:53:40;90711.41;;;15.26;nan
9935;BME280;5006;41.828;23.478;2022-07-12T00:54:46;90692.16;;;15.24;nan
9935;BME280;5006;41.828;23.478;2022-07-12T00:55:53;90704.72;;;15.08;nan
9935;BME280;5006;41.828;23.478;2022-07-12T00:56:59;90703.41;;;15.19;nan
9935;BME280;5006;41.828;23.478;2022-07-12T00:58:04;90703.97;;;15.04;nan
9935;BME280;5006;41.828;23.478;2022-07-12T00:59:10;90700.72;;;15.19;nan
9935;BME280;5006;41.828;23.478;2022-07-12T01:00:17;90708.66;;;15.33;nan
9935;BME280;5006;41.828;23.478;2022-07-12T01:01:23;90703.44;;;15.49;nan
9935;BME280;5006;41.828;23.478;2022-07-12T01:02:28;90705.31;;;15.22;nan
9935;BME280;5006;41.828;23.478;2022-07-12T01:03:34;90711.81;;;15.28;nan
9935;BME280;5006;41.828;23.478;2022-07-12T01:04:39;90706.63;;;15.40;nan
9935;BME280;5006;41.828;23.478;2022-07-12T01:05:45;90707.66;;;15.50;nan
9935;BME280;5006;41.828;23.478;2022-07-12T01:06:51;90707.59;;;15.57;nan
9935;BME280;5006;41.828;23.478;2022-07-12T01:07:58;90708.66;;;15.33;nan
9935;BME280;5006;41.828;23.478;2022-07-12T01:09:04;90707.47;;;15.64;nan
9935;BME280;5006;41.828;23.478;2022-07-12T01:10:09;90698.69;;;15.56;nan
9935;BME280;5006;41.828;23.478;2022-07-12T01:11:15;90705.34;;;15.52;nan
9935;BME280;5006;41.828;23.478;2022-07-12T01:12:21;90713.72;;;15.31;nan
9935;BME280;5006;41.828;23.478;2022-07-12T01:13:27;90703.25;;;15.33;nan
9935;BME280;5006;41.828;23.478;2022-07-12T01:14:34;90707.47;;;15.37;nan
9935;BME280;5006;41.828;23.478;2022-07-12T01:15:40;90705.78;;;15.47;nan
9935;BME280;5006;41.828;23.478;2022-07-12T01:16:45;90702.94;;;15.57;nan
9935;BME280;5006;41.828;23.478;2022-07-12T01:17:53;90710.63;;;15.32;nan
9935;BME280;5006;41.828;23.478;2022-07-12T01:19:01;90716.13;;;15.18;nan
9935;BME280;5006;41.828;23.478;2022-07-12T01:20:10;90703.91;;;15.44;nan
9935;BME280;5006;41.828;23.478;2022-07-12T01:21:18;90711.91;;;15.51;nan
9935;BME280;5006;41.828;23.478;2022-07-12T01:22:30;90700.56;;;15.33;nan
9935;BME280;5006;41.828;23.478;2022-07-12T01:23:37;90700.97;;;15.61;nan
9935;BME280;5006;41.828;23.478;2022-07-12T01:24:43;90708.63;;;15.36;nan
9935;BME280;5006;41.828;23.478;2022-07-12T01:25:48;90713.34;;;15.59;nan
9935;BME280;5006;41.828;23.478;2022-07-12T01:26:54;90701.88;;;15.51;nan
9935;BME280;5006;41.828;23.478;2022-07-12T01:27:59;90702.72;;;16.01;nan
9935;BME280;5006;41.828;23.478;2022-07-12T01:29:06;90705.88;;;15.70;nan
9935;BME280;5006;41.828;23.478;2022-07-12T01:30:12;90699.63;;;15.46;nan
9935;BME280;5006;41.828;23.478;2022-07-12T01:31:18;90713.00;;;15.23;nan
9935;BME280;5006;41.828;23.478;2022-07-12T01:32:23;90707.00;;;15.09;nan
9935;BME280;5006;41.828;23.478;2022-07-12T01:33:34;90703.00;;;15.54;nan
9935;BME280;5006;41.828;23.478;2022-07-12T01:34:39;90702.97;;;15.84;nan
9935;BME280;5006;41.828;23.478;2022-07-12T01:35:45;90703.34;;;15.82;nan
9935;BME280;5006;41.828;23.478;2022-07-12T01:36:51;90700.41;;;15.73;nan
9935;BME280;5006;41.828;23.478;2022-07-12T01:37:57;90697.47;;;15.91;nan
9935;BME280;5006;41.828;23.478;2022-07-12T01:39:04;90700.41;;;16.00;nan
9935;BME280;5006;41.828;23.478;2022-07-12T01:40:12;90697.63;;;15.50;nan
9935;BME280;5006;41.828;23.478;2022-07-12T01:41:16;90697.25;;;15.52;nan
9935;BME280;5006;41.828;23.478;2022-07-12T01:42:24;90706.56;;;15.47;nan
9935;BME280;5006;41.828;23.478;2022-07-12T01:43:29;90704.00;;;15.00;nan
9935;BME280;5006;41.828;23.478;2022-07-12T01:44:35;90707.53;;;14.97;nan
9935;BME280;5006;41.828;23.478;2022-07-12T01:45:40;90703.56;;;14.72;nan
9935;BME280;5006;41.828;23.478;2022-07-12T01:46:47;90704.75;;;14.27;nan
9935;BME280;5006;41.828;23.478;2022-07-12T01:47:52;90708.69;;;14.15;nan
9935;BME280;5006;41.828;23.478;2022-07-12T01:48:57;90702.16;;;14.09;nan
9935;BME280;5006;41.828;23.478;2022-07-12T01:50:05;90696.75;;;14.16;nan
9935;BME280;5006;41.828;23.478;2022-07-12T01:51:11;90697.56;;;14.10;nan
9935;BME280;5006;41.828;23.478;2022-07-12T01:52:18;90696.31;;;14.21;nan
9935;BME280;5006;41.828;23.478;2022-07-12T01:53:23;90694.16;;;14.46;nan
9935;BME280;5006;41.828;23.478;2022-07-12T01:54:31;90704.06;;;14.60;nan
9935;BME280;5006;41.828;23.478;2022-07-12T01:55:37;90695.94;;;14.63;nan
9935;BME280;5006;41.828;23.478;2022-07-12T01:56:43;90694.31;;;14.69;nan
9935;BME280;5006;41.828;23.478;2022-07-12T01:57:48;90692.06;;;14.24;nan
9935;BME280;5006;41.828;23.478;2022-07-12T01:58:54;90703.13;;;14.36;nan
9935;BME280;5006;41.828;23.478;2022-07-12T02:00:00;90696.94;;;14.39;nan
9935;BME280;5006;41.828;23.478;2022-07-12T02:01:10;90695.16;;;14.22;nan
9935;BME280;5006;41.828;23.478;2022-07-12T02:02:16;90688.19;;;14.25;nan
9935;BME280;5006;41.828;23.478;2022-07-12T02:03:21;90687.97;;;14.02;nan
9935;BME280;5006;41.828;23.478;2022-07-12T02:04:26;90691.03;;;14.04;nan
9935;BME280;5006;41.828;23.478;2022-07-12T02:05:31;90693.38;;;13.98;nan
9935;BME280;5006;41.828;23.478;2022-07-12T02:06:37;90688.66;;;14.13;nan
9935;BME280;5006;41.828;23.478;2022-07-12T02:07:43;90689.78;;;14.59;nan
9935;BME280;5006;41.828;23.478;2022-07-12T02:08:49;90690.56;;;14.60;nan
9935;BME280;5006;41.828;23.478;2022-07-12T02:09:55;90691.16;;;13.90;nan
9935;BME280;5006;41.828;23.478;2022-07-12T02:11:02;90691.19;;;13.86;nan
9935;BME280;5006;41.828;23.478;2022-07-12T02:12:07;90690.75;;;13.91;nan
9935;BME280;5006;41.828;23.478;2022-07-12T02:13:13;90687.72;;;13.86;nan
9935;BME280;5006;41.828;23.478;2022-07-12T02:14:17;90689.47;;;14.06;nan
9935;BME280;5006;41.828;23.478;2022-07-12T02:15:23;90688.81;;;13.92;nan
9935;BME280;5006;41.828;23.478;2022-07-12T02:16:29;90689.41;;;14.20;nan
9935;BME280;5006;41.828;23.478;2022-07-12T02:17:34;90693.97;;;14.27;nan
9935;BME280;5006;41.828;23.478;2022-07-12T02:18:40;90697.28;;;14.45;nan
9935;BME280;5006;41.828;23.478;2022-07-12T02:19:44;90689.44;;;14.57;nan
9935;BME280;5006;41.828;23.478;2022-07-12T02:20:50;90699.19;;;14.44;nan
9935;BME280;5006;41.828;23.478;2022-07-12T02:21:55;90696.03;;;14.53;nan
9935;BME280;5006;41.828;23.478;2022-07-12T02:23:01;90705.41;;;14.41;nan
9935;BME280;5006;41.828;23.478;2022-07-12T02:24:05;90697.16;;;14.11;nan
9935;BME280;5006;41.828;23.478;2022-07-12T02:25:12;90704.47;;;14.18;nan
9935;BME280;5006;41.828;23.478;2022-07-12T02:26:18;90692.81;;;14.65;nan
9935;BME280;5006;41.828;23.478;2022-07-12T02:27:23;90699.03;;;14.62;nan
9935;BME280;5006;41.828;23.478;2022-07-12T02:28:29;90700.56;;;14.63;nan
9935;BME280;5006;41.828;23.478;2022-07-12T02:29:33;90699.03;;;14.62;nan
9935;BME280;5006;41.828;23.478;2022-07-12T02:30:40;90696.44;;;14.88;nan
9935;BME280;5006;41.828;23.478;2022-07-12T02:31:44;90708.38;;;14.06;nan
9935;BME280;5006;41.828;23.478;2022-07-12T02:32:50;90702.59;;;14.04;nan
9935;BME280;5006;41.828;23.478;2022-07-12T02:33:55;90707.88;;;14.22;nan
9935;BME280;5006;41.828;23.478;2022-07-12T02:35:01;90709.78;;;14.25;nan
9935;BME280;5006;41.828;23.478;2022-07-12T02:36:07;90709.47;;;14.12;nan
9935;BME280;5006;41.828;23.478;2022-07-12T02:37:12;90702.84;;;13.73;nan
9935;BME280;5006;41.828;23.478;2022-07-12T02:38:18;90704.84;;;14.16;nan
9935;BME280;5006;41.828;23.478;2022-07-12T02:39:24;90704.44;;;13.63;nan
9935;BME280;5006;41.828;23.478;2022-07-12T02:40:31;90707.78;;;13.78;nan
9935;BME280;5006;41.828;23.478;2022-07-12T02:41:54;90719.09;;;13.62;nan
9935;BME280;5006;41.828;23.478;2022-07-12T02:43:00;90719.56;;;13.40;nan
9935;BME280;5006;41.828;23.478;2022-07-12T02:44:05;90716.84;;;13.50;nan
9935;BME280;5006;41.828;23.478;2022-07-12T02:45:11;90713.88;;;13.24;nan
9935;BME280;5006;41.828;23.478;2022-07-12T02:46:16;90708.34;;;13.55;nan
9935;BME280;5006;41.828;23.478;2022-07-12T02:47:22;90711.28;;;13.75;nan
9935;BME280;5006;41.828;23.478;2022-07-12T02:48:26;90717.59;;;13.51;nan
9935;BME280;5006;41.828;23.478;2022-07-12T02:49:33;90703.28;;;13.61;nan
9935;BME280;5006;41.828;23.478;2022-07-12T02:50:38;90713.09;;;13.92;nan
9935;BME280;5006;41.828;23.478;2022-07-12T02:51:43;90711.63;;;13.84;nan
9935;BME280;5006;41.828;23.478;2022-07-12T02:52:48;90713.38;;;14.08;nan
9935;BME280;5006;41.828;23.478;2022-07-12T02:53:54;90712.25;;;14.02;nan
9935;BME280;5006;41.828;23.478;2022-07-12T02:55:00;90714.84;;;14.19;nan
9935;BME280;5006;41.828;23.478;2022-07-12T02:56:06;90720.19;;;14.26;nan
9935;BME280;5006;41.828;23.478;2022-07-12T02:57:13;90716.34;;;14.24;nan
9935;BME280;5006;41.828;23.478;2022-07-12T02:58:18;90707.91;;;14.18;nan
9935;BME280;5006;41.828;23.478;2022-07-12T02:59:24;90721.78;;;14.17;nan
9935;BME280;5006;41.828;23.478;2022-07-12T03:00:30;90724.63;;;14.47;nan
9935;BME280;5006;41.828;23.478;2022-07-12T03:01:34;90718.13;;;14.41;nan
9935;BME280;5006;41.828;23.478;2022-07-12T03:02:40;90690.78;;;14.35;nan
9935;BME280;5006;41.828;23.478;2022-07-12T03:03:45;90725.06;;;14.79;nan
9935;BME280;5006;41.828;23.478;2022-07-12T03:04:51;90710.34;;;14.46;nan
9935;BME280;5006;41.828;23.478;2022-07-12T03:05:56;90718.69;;;14.62;nan
9935;BME280;5006;41.828;23.478;2022-07-12T03:07:02;90707.56;;;14.57;nan
9935;BME280;5006;41.828;23.478;2022-07-12T03:08:07;90718.75;;;14.59;nan
9935;BME280;5006;41.828;23.478;2022-07-12T03:09:14;90709.66;;;14.79;nan
9935;BME280;5006;41.828;23.478;2022-07-12T03:10:18;90702.59;;;14.52;nan
9935;BME280;5006;41.828;23.478;2022-07-12T03:11:25;90718.25;;;14.67;nan
9935;BME280;5006;41.828;23.478;2022-07-12T03:12:30;90722.84;;;14.70;nan
9935;BME280;5006;41.828;23.478;2022-07-12T03:13:36;90725.13;;;14.75;nan
9935;BME280;5006;41.828;23.478;2022-07-12T03:14:42;90732.16;;;14.66;nan
9935;BME280;5006;41.828;23.478;2022-07-12T03:15:48;90731.72;;;14.71;nan
9935;BME280;5006;41.828;23.478;2022-07-12T03:16:54;90728.88;;;14.85;nan
9935;BME280;5006;41.828;23.478;2022-07-12T03:17:59;90717.56;;;14.97;nan
9935;BME280;5006;41.828;23.478;2022-07-12T03:19:05;90717.63;;;14.90;nan
9935;BME280;5006;41.828;23.478;2022-07-12T03:20:11;90720.00;;;14.84;nan
9935;BME280;5006;41.828;23.478;2022-07-12T03:21:18;90729.53;;;14.96;nan
9935;BME280;5006;41.828;23.478;2022-07-12T03:22:24;90727.22;;;14.94;nan
9935;BME280;5006;41.828;23.478;2022-07-12T03:23:29;90727.63;;;14.93;nan
9935;BME280;5006;41.828;23.478;2022-07-12T03:24:35;90729.91;;;14.98;nan
9935;BME280;5006;41.828;23.478;2022-07-12T03:25:40;90737.13;;;15.08;nan
9935;BME280;5006;41.828;23.478;2022-07-12T03:26:46;90732.09;;;14.73;nan
9935;BME280;5006;41.828;23.478;2022-07-12T03:27:51;90733.31;;;15.02;nan
9935;BME280;5006;41.828;23.478;2022-07-12T03:28:58;90728.13;;;14.81;nan
9935;BME280;5006;41.828;23.478;2022-07-12T03:30:06;90733.72;;;14.63;nan
9935;BME280;5006;41.828;23.478;2022-07-12T03:31:11;90733.69;;;15.04;nan
9935;BME280;5006;41.828;23.478;2022-07-12T03:32:17;90742.38;;;14.85;nan
9935;BME280;5006;41.828;23.478;2022-07-12T03:33:22;90735.97;;;14.72;nan
9935;BME280;5006;41.828;23.478;2022-07-12T03:34:27;90732.19;;;14.99;nan
9935;BME280;5006;41.828;23.478;2022-07-12T03:35:32;90736.50;;;14.56;nan
9935;BME280;5006;41.828;23.478;2022-07-12T03:36:39;90736.16;;;14.51;nan
9935;BME280;5006;41.828;23.478;2022-07-12T03:37:46;90732.19;;;14.99;nan
9935;BME280;5006;41.828;23.478;2022-07-12T03:38:51;90735.22;;;14.68;nan
9935;BME280;5006;41.828;23.478;2022-07-12T03:39:56;90731.81;;;14.97;nan
9935;BME280;5006;41.828;23.478;2022-07-12T03:41:01;90730.63;;;14.65;nan
9935;BME280;5006;41.828;23.478;2022-07-12T03:42:09;90736.75;;;15.06;nan
9935;BME280;5006;41.828;23.478;2022-07-12T03:43:15;90736.03;;;15.02;nan
9935;BME280;5006;41.828;23.478;2022-07-12T03:44:21;90725.66;;;15.33;nan
9935;BME280;5006;41.828;23.478;2022-07-12T03:45:26;90726.84;;;14.96;nan
9935;BME280;5006;41.828;23.478;2022-07-12T03:46:31;90733.72;;;15.37;nan
9935;BME280;5006;41.828;23.478;2022-07-12T03:47:37;90734.28;;;15.21;nan
9935;BME280;5006;41.828;23.478;2022-07-12T03:48:43;90735.69;;;14.96;nan
9935;BME280;5006;41.828;23.478;2022-07-12T03:49:48;90738.22;;;15.13;nan
9935;BME280;5006;41.828;23.478;2022-07-12T03:50:53;90734.44;;;14.71;nan
9935;BME280;5006;41.828;23.478;2022-07-12T03:52:00;90742.22;;;14.14;nan
9935;BME280;5006;41.828;23.478;2022-07-12T03:53:07;90739.47;;;14.21;nan
9935;BME280;5006;41.828;23.478;2022-07-12T03:54:12;90735.84;;;14.42;nan
9935;BME280;5006;41.828;23.478;2022-07-12T03:55:17;90739.81;;;14.30;nan
9935;BME280;5006;41.828;23.478;2022-07-12T03:56:23;90734.59;;;14.53;nan
9935;BME280;5006;41.828;23.478;2022-07-12T03:57:48;90747.47;;;14.79;nan
9935;BME280;5006;41.828;23.478;2022-07-12T03:58:53;90743.19;;;14.82;nan
9935;BME280;5006;41.828;23.478;2022-07-12T03:59:58;90741.88;;;14.56;nan
9935;BME280;5006;41.828;23.478;2022-07-12T04:01:04;90754.25;;;14.54;nan
9935;BME280;5006;41.828;23.478;2022-07-12T04:02:09;90747.34;;;14.90;nan
9935;BME280;5006;41.828;23.478;2022-07-12T04:03:14;90754.56;;;14.63;nan
9935;BME280;5006;41.828;23.478;2022-07-12T04:04:20;90751.25;;;14.85;nan
9935;BME280;5006;41.828;23.478;2022-07-12T04:05:24;90756.59;;;15.25;nan
9935;BME280;5006;41.828;23.478;2022-07-12T04:06:30;90754.97;;;14.98;nan
9935;BME280;5006;41.828;23.478;2022-07-12T04:07:35;90755.09;;;14.88;nan
9935;BME280;5006;41.828;23.478;2022-07-12T04:08:41;90754.34;;;15.20;nan
9935;BME280;5006;41.828;23.478;2022-07-12T04:09:46;90758.75;;;15.08;nan
9935;BME280;5006;41.828;23.478;2022-07-12T04:10:52;90758.50;;;14.92;nan
9935;BME280;5006;41.828;23.478;2022-07-12T04:11:57;90754.31;;;14.87;nan
9935;BME280;5006;41.828;23.478;2022-07-12T04:13:04;90761.97;;;14.92;nan
9935;BME280;5006;41.828;23.478;2022-07-12T04:14:10;90765.69;;;15.09;nan
9935;BME280;5006;41.828;23.478;2022-07-12T04:15:15;90763.75;;;15.42;nan
9935;BME280;5006;41.828;23.478;2022-07-12T04:16:38;90761.56;;;15.30;nan
9935;BME280;5006;41.828;23.478;2022-07-12T04:17:44;90758.38;;;15.72;nan
9935;BME280;5006;41.828;23.478;2022-07-12T04:18:49;90761.69;;;15.83;nan
9935;BME280;5006;41.828;23.478;2022-07-12T04:19:55;90767.34;;;15.66;nan
9935;BME280;5006;41.828;23.478;2022-07-12T04:21:01;90763.50;;;15.63;nan
9935;BME280;5006;41.828;23.478;2022-07-12T04:22:05;90769.34;;;15.25;nan
9935;BME280;5006;41.828;23.478;2022-07-12T04:23:11;90766.72;;;15.18;nan
9935;BME280;5006;41.828;23.478;2022-07-12T04:24:16;90768.81;;;15.04;nan
9935;BME280;5006;41.828;23.478;2022-07-12T04:25:22;90772.88;;;15.18;nan
9935;BME280;5006;41.828;23.478;2022-07-12T04:26:27;90767.78;;;15.27;nan
9935;BME280;5006;41.828;23.478;2022-07-12T04:27:33;90763.53;;;15.60;nan
9935;BME280;5006;41.828;23.478;2022-07-12T04:28:39;90763.41;;;15.70;nan
9935;BME280;5006;41.828;23.478;2022-07-12T04:29:45;90763.84;;;16.22;nan
9935;BME280;5006;41.828;23.478;2022-07-12T04:30:50;90767.53;;;16.08;nan
9935;BME280;5006;41.828;23.478;2022-07-12T04:31:55;90756.13;;;16.20;nan
9935;BME280;5006;41.828;23.478;2022-07-12T04:32:59;90762.16;;;16.31;nan
9935;BME280;5006;41.828;23.478;2022-07-12T04:34:05;90764.69;;;16.45;nan
9935;BME280;5006;41.828;23.478;2022-07-12T04:35:10;90770.00;;;15.99;nan
9935;BME280;5006;41.828;23.478;2022-07-12T04:36:16;90767.34;;;16.22;nan
9935;BME280;5006;41.828;23.478;2022-07-12T04:37:21;90774.00;;;16.67;nan
9935;BME280;5006;41.828;23.478;2022-07-12T04:38:27;90777.50;;;16.41;nan
9935;BME280;5006;41.828;23.478;2022-07-12T04:39:32;90757.13;;;16.07;nan
9935;BME280;5006;41.828;23.478;2022-07-12T04:40:38;90772.88;;;15.85;nan
9935;BME280;5006;41.828;23.478;2022-07-12T04:41:42;90761.66;;;16.40;nan
9935;BME280;5006;41.828;23.478;2022-07-12T04:42:48;90761.09;;;16.52;nan
9935;BME280;5006;41.828;23.478;2022-07-12T04:43:55;90771.66;;;16.92;nan
9935;BME280;5006;41.828;23.478;2022-07-12T04:45:00;90777.28;;;16.55;nan
9935;BME280;5006;41.828;23.478;2022-07-12T04:46:06;90770.28;;;17.04;nan
9935;BME280;5006;41.828;23.478;2022-07-12T04:47:11;90776.41;;;16.85;nan
9935;BME280;5006;41.828;23.478;2022-07-12T04:48:17;90776.22;;;17.18;nan
9935;BME280;5006;41.828;23.478;2022-07-12T04:49:22;90777.00;;;16.96;nan
9935;BME280;5006;41.828;23.478;2022-07-12T04:50:27;90780.50;;;17.16;nan
9935;BME280;5006;41.828;23.478;2022-07-12T04:51:32;90779.88;;;17.08;nan
9935;BME280;5006;41.828;23.478;2022-07-12T04:52:38;90771.53;;;16.99;nan
9935;BME280;5006;41.828;23.478;2022-07-12T04:53:43;90783.25;;;16.93;nan
9935;BME280;5006;41.828;23.478;2022-07-12T04:54:49;90777.97;;;17.28;nan
9935;BME280;5006;41.828;23.478;2022-07-12T04:55:54;90771.16;;;16.97;nan
9935;BME280;5006;41.828;23.478;2022-07-12T04:56:59;90780.94;;;17.14;nan
9935;BME280;5006;41.828;23.478;2022-07-12T04:58:05;90772.94;;;16.61;nan
9935;BME280;5006;41.828;23.478;2022-07-12T04:59:11;90780.91;;;16.72;nan
9935;BME280;5006;41.828;23.478;2022-07-12T05:00:18;90784.88;;;17.10;nan
9935;BME280;5006;41.828;23.478;2022-07-12T05:01:23;90785.19;;;16.69;nan
9935;BME280;5006;41.828;23.478;2022-07-12T05:02:29;90777.59;;;17.68;nan
9935;BME280;5006;41.828;23.478;2022-07-12T05:03:34;90783.44;;;17.25;nan
9935;BME280;5006;41.828;23.478;2022-07-12T05:04:39;90785.19;;;17.57;nan
9935;BME280;5006;41.828;23.478;2022-07-12T05:05:45;90778.34;;;17.88;nan
9935;BME280;5006;41.828;23.478;2022-07-12T05:06:50;90781.84;;;17.89;nan
9935;BME280;5006;41.828;23.478;2022-07-12T05:07:56;90781.34;;;17.94;nan
9935;BME280;5006;41.828;23.478;2022-07-12T05:09:02;90790.50;;;18.00;nan
9935;BME280;5006;41.828;23.478;2022-07-12T05:10:07;90788.56;;;18.00;nan
9935;BME280;5006;41.828;23.478;2022-07-12T05:11:14;90795.44;;;18.24;nan
9935;BME280;5006;41.828;23.478;2022-07-12T05:12:19;90792.50;;;17.60;nan
9935;BME280;5006;41.828;23.478;2022-07-12T05:13:24;90792.78;;;18.21;nan
9935;BME280;5006;41.828;23.478;2022-07-12T05:14:30;90790.91;;;18.18;nan
9935;BME280;5006;41.828;23.478;2022-07-12T05:15:36;90793.34;;;18.32;nan
9935;BME280;5006;41.828;23.478;2022-07-12T05:16:40;90793.28;;;18.51;nan
9935;BME280;5006;41.828;23.478;2022-07-12T05:17:46;90795.97;;;19.19;nan
9935;BME280;5006;41.828;23.478;2022-07-12T05:18:51;90796.28;;;18.89;nan
9935;BME280;5006;41.828;23.478;2022-07-12T05:19:57;90803.31;;;18.54;nan
9935;BME280;5006;41.828;23.478;2022-07-12T05:21:02;90799.84;;;19.02;nan
9935;BME280;5006;41.828;23.478;2022-07-12T05:22:08;90788.22;;;19.17;nan
9935;BME280;5006;41.828;23.478;2022-07-12T05:23:13;90794.00;;;19.19;nan
9935;BME280;5006;41.828;23.478;2022-07-12T05:24:18;90794.25;;;19.09;nan
9935;BME280;5006;41.828;23.478;2022-07-12T05:25:23;90800.19;;;18.56;nan
9935;BME280;5006;41.828;23.478;2022-07-12T05:26:29;90801.91;;;18.82;nan
9935;BME280;5006;41.828;23.478;2022-07-12T05:27:35;90804.81;;;19.67;nan
9935;BME280;5006;41.828;23.478;2022-07-12T05:28:40;90799.03;;;19.05;nan
9935;BME280;5006;41.828;23.478;2022-07-12T05:29:47;90799.13;;;18.34;nan
9935;BME280;5006;41.828;23.478;2022-07-12T05:30:52;90795.56;;;18.17;nan
9935;BME280;5006;41.828;23.478;2022-07-12T05:31:58;90790.75;;;18.92;nan
9935;BME280;5006;41.828;23.478;2022-07-12T05:33:05;90792.38;;;19.06;nan
9935;BME280;5006;41.828;23.478;2022-07-12T05:34:11;90797.41;;;19.23;nan
9935;BME280;5006;41.828;23.478;2022-07-12T05:35:16;90797.38;;;19.07;nan
9935;BME280;5006;41.828;23.478;2022-07-12T05:36:22;90793.66;;;19.62;nan
9935;BME280;5006;41.828;23.478;2022-07-12T05:37:28;90799.31;;;19.55;nan
9935;BME280;5006;41.828;23.478;2022-07-12T05:38:32;90790.00;;;20.37;nan
9935;BME280;5006;41.828;23.478;2022-07-12T05:39:38;90787.75;;;20.07;nan
9935;BME280;5006;41.828;23.478;2022-07-12T05:40:43;90789.19;;;19.83;nan
9935;BME280;5006;41.828;23.478;2022-07-12T05:41:48;90795.44;;;20.37;nan
9935;BME280;5006;41.828;23.478;2022-07-12T05:42:53;90800.34;;;20.55;nan
9935;BME280;5006;41.828;23.478;2022-07-12T05:43:59;90800.22;;;20.33;nan
9935;BME280;5006;41.828;23.478;2022-07-12T05:45:07;90793.59;;;19.93;nan
9935;BME280;5006;41.828;23.478;2022-07-12T05:46:12;90788.31;;;19.86;nan
9935;BME280;5006;41.828;23.478;2022-07-12T05:47:18;90793.13;;;19.38;nan
9935;BME280;5006;41.828;23.478;2022-07-12T05:48:22;90791.31;;;20.70;nan
9935;BME280;5006;41.828;23.478;2022-07-12T05:49:28;90790.44;;;20.73;nan
9935;BME280;5006;41.828;23.478;2022-07-12T05:50:34;90789.31;;;21.33;nan
9935;BME280;5006;41.828;23.478;2022-07-12T05:51:39;90789.50;;;21.85;nan
9935;BME280;5006;41.828;23.478;2022-07-12T05:53:02;90785.97;;;20.79;nan
9935;BME280;5006;41.828;23.478;2022-07-12T05:54:25;90790.53;;;20.32;nan
9935;BME280;5006;41.828;23.478;2022-07-12T05:55:30;90795.66;;;20.43;nan
9935;BME280;5006;41.828;23.478;2022-07-12T05:56:36;90800.78;;;20.41;nan
9935;BME280;5006;41.828;23.478;2022-07-12T05:57:41;90790.44;;;20.73;nan
9935;BME280;5006;41.828;23.478;2022-07-12T05:58:46;90798.44;;;20.93;nan
9935;BME280;5006;41.828;23.478;2022-07-12T05:59:53;90791.31;;;21.67;nan
9935;BME280;5006;41.828;23.478;2022-07-12T06:00:59;90791.22;;;21.45;nan
9935;BME280;5006;41.828;23.478;2022-07-12T06:02:05;90791.75;;;20.81;nan
9935;BME280;5006;41.828;23.478;2022-07-12T06:03:09;90790.16;;;20.18;nan
9935;BME280;5006;41.828;23.478;2022-07-12T06:04:16;90794.47;;;20.69;nan